Time;durP1;ratioP1;P1;durP2;ratioP2;P2;SDS_P1;SDS_P2;PMS_P1;PMS_P2;Temp;Humidity;BMP_temperature;BMP_pressure;BME280_temperature;BME280_humidity;BME280_pressure;Samples;Min_cycle;Max_cycle;Signal;HPM_P1;HPM_P2
2022/02/27 00:01:42;;;;;;;64.38;38.78;;;;;;;6.32;58.66;100270.59;4973184;28;20035;-92
2022/02/27 00:04:08;;;;;;;73.35;41.65;;;;;;;6.31;59.10;100288.13;4976098;28;20034;-92
2022/02/27 00:06:33;;;;;;;61.90;36.97;;;;;;;6.11;59.88;100283.78;4972949;28;20027;-92
2022/02/27 00:08:59;;;;;;;58.53;36.65;;;;;;;6.69;60.18;100362.72;4972862;28;20487;-93
2022/02/27 00:11:25;;;;;;;60.65;37.40;;;;;;;6.20;59.49;100279.53;4975095;28;20026;-92
2022/02/27 00:13:50;;;;;;;58.60;35.15;;;;;;;6.15;59.72;100269.44;4973187;28;20539;-92
2022/02/27 00:16:15;;;;;;;53.63;33.22;;;;;;;6.32;59.85;100281.94;4973548;28;20031;-92
2022/02/27 00:18:41;;;;;;;55.05;35.55;;;;;;;6.67;59.96;100360.19;4973726;28;20121;-92
2022/02/27 00:21:07;;;;;;;55.75;34.63;;;;;;;5.41;59.96;100133.34;4973090;28;20415;-92
2022/02/27 00:23:32;;;;;;;51.72;32.70;;;;;;;6.25;59.59;100296.53;4973230;28;20121;-92
2022/02/27 00:25:57;;;;;;;56.40;32.50;;;;;;;6.09;59.92;100235.88;4958716;28;20026;-93
2022/02/27 00:28:23;;;;;;;51.53;35.35;;;;;;;6.26;59.75;100265.88;4973352;28;20523;-92
2022/02/27 00:30:49;;;;;;;50.95;33.42;;;;;;;6.08;59.35;100243.88;4988838;28;20027;-91
2022/02/27 00:33:14;;;;;;;48.00;29.77;;;;;;;6.36;59.22;100306.09;4999089;28;20023;-92
2022/02/27 00:35:40;;;;;;;39.97;27.77;;;;;;;6.34;59.14;100280.00;4998813;28;20053;-92
2022/02/27 00:38:06;;;;;;;46.80;30.00;;;;;;;6.60;59.25;100295.25;4998990;28;20021;-91
2022/02/27 00:40:32;;;;;;;42.75;27.45;;;;;;;6.89;58.84;100332.94;4976827;28;20030;-93
2022/02/27 00:42:57;;;;;;;39.53;25.30;;;;;;;6.21;59.23;100236.63;4957211;28;20416;-93
2022/02/27 00:45:23;;;;;;;41.33;26.80;;;;;;;6.87;59.31;100321.75;4973345;28;20406;-93
2022/02/27 00:47:48;;;;;;;36.40;24.02;;;;;;;5.87;59.65;100170.50;4956655;28;20174;-93
2022/02/27 00:50:14;;;;;;;34.92;23.70;;;;;;;6.35;59.46;100231.00;4972186;28;20025;-93
2022/02/27 00:52:41;;;;;;;35.55;23.98;;;;;;;6.09;60.03;100212.28;4972338;28;20026;-93
2022/02/27 00:55:07;;;;;;;38.28;22.75;;;;;;;6.69;60.11;100302.38;4975048;28;20531;-92
2022/02/27 00:57:33;;;;;;;34.78;23.02;;;;;;;6.33;60.09;100246.88;4956388;28;20105;-93
2022/02/27 00:59:59;;;;;;;36.42;24.20;;;;;;;6.01;60.45;100185.91;4974457;28;20543;-93
2022/02/27 01:02:24;;;;;;;36.22;22.20;;;;;;;6.46;60.78;100262.38;4973693;28;20130;-92
2022/02/27 01:04:50;;;;;;;33.83;21.08;;;;;;;5.03;60.14;100039.72;4962533;28;20030;-93
2022/02/27 01:07:15;;;;;;;32.37;20.80;;;;;;;6.40;60.39;100262.06;4991258;28;20026;-93
2022/02/27 01:09:41;;;;;;;31.85;19.60;;;;;;;6.13;60.74;100208.44;4977317;28;20030;-91
2022/02/27 01:12:07;;;;;;;33.28;22.15;;;;;;;6.35;60.95;100265.09;4975440;28;20027;-93
2022/02/27 01:14:32;;;;;;;32.83;21.35;;;;;;;6.15;60.76;100210.94;4957650;28;20031;-93
2022/02/27 01:17:05;;;;;;;28.60;20.85;;;;;;;6.67;60.25;100291.13;4972087;28;20026;-93
2022/02/27 01:19:31;;;;;;;30.38;20.77;;;;;;;6.48;60.68;100257.00;4955638;28;20035;-93
2022/02/27 01:21:56;;;;;;;31.65;21.25;;;;;;;6.59;60.83;100283.94;4974505;28;20023;-93
2022/02/27 01:24:22;;;;;;;33.77;23.00;;;;;;;5.28;60.69;100113.59;4955477;28;20019;-93
2022/02/27 01:26:47;;;;;;;34.75;22.70;;;;;;;5.07;60.74;100072.53;4971814;28;20067;-92
2022/02/27 01:29:13;;;;;;;34.80;21.90;;;;;;;6.21;60.98;100261.03;4974675;28;20062;-92
2022/02/27 01:31:39;;;;;;;34.73;24.10;;;;;;;6.04;60.63;100243.31;4971794;28;20029;-91
2022/02/27 01:34:04;;;;;;;34.72;23.42;;;;;;;6.23;60.96;100243.38;4973030;28;20033;-93
2022/02/27 01:36:30;;;;;;;36.45;23.50;;;;;;;6.29;60.49;100252.50;4972651;28;20030;-91
2022/02/27 01:38:55;;;;;;;30.33;21.30;;;;;;;5.81;60.77;100181.50;4971487;28;20105;-93
2022/02/27 01:41:21;;;;;;;35.25;25.52;;;;;;;6.71;60.76;100307.47;4955601;28;20515;-92
2022/02/27 01:43:46;;;;;;;37.55;24.08;;;;;;;6.71;60.76;100317.97;4957407;28;20015;-92
2022/02/27 01:46:15;;;;;;;41.83;25.88;;;;;;;6.72;60.76;100304.72;4972040;28;20026;-93
2022/02/27 01:48:41;;;;;;;35.92;25.27;;;;;;;6.70;61.25;100317.13;4971931;28;20030;-91
2022/02/27 01:51:06;;;;;;;39.40;25.58;;;;;;;6.70;61.21;100327.63;4958090;28;20023;-92
2022/02/27 01:53:33;;;;;;;42.78;25.95;;;;;;;6.55;61.28;100315.81;4959569;28;20102;-92
2022/02/27 01:55:59;;;;;;;48.38;27.92;;;;;;;6.18;61.34;100278.84;4976471;28;20019;-92
2022/02/27 01:58:29;;;;;;;38.10;25.40;;;;;;;6.69;61.82;100328.59;4975630;28;20049;-92
2022/02/27 02:00:57;;;;;;;40.05;26.70;;;;;;;5.91;61.67;100185.84;4959018;28;20022;-92
2022/02/27 02:03:24;;;;;;;46.15;28.02;;;;;;;5.84;61.49;100170.75;4975252;28;20027;-92
2022/02/27 02:05:50;;;;;;;44.83;28.60;;;;;;;5.38;61.25;100096.13;4977037;28;20479;-92
2022/02/27 02:08:16;;;;;;;49.42;30.73;;;;;;;5.91;61.25;100179.78;4975022;28;20029;-93
2022/02/27 02:10:42;;;;;;;52.08;29.05;;;;;;;6.61;61.82;100299.53;4975517;28;20027;-92
2022/02/27 02:13:07;;;;;;;45.53;28.33;;;;;;;5.63;62.06;100137.59;4960563;28;20038;-93
2022/02/27 02:15:33;;;;;;;48.70;28.92;;;;;;;6.68;61.82;100319.88;4958929;28;20027;-93
2022/02/27 02:17:59;;;;;;;42.50;29.02;;;;;;;5.11;61.93;100087.03;4976182;28;20098;-92
2022/02/27 02:20:24;;;;;;;53.42;28.27;;;;;;;6.13;61.47;100213.69;4976325;28;20023;-91
2022/02/27 02:22:50;;;;;;;44.90;27.98;;;;;;;5.92;61.83;100208.47;4976089;28;20034;-93
2022/02/27 02:25:16;;;;;;;45.72;30.45;;;;;;;6.61;61.99;100310.03;4976043;28;20088;-92
2022/02/27 02:27:42;;;;;;;44.90;29.40;;;;;;;6.68;61.87;100300.66;4974676;28;20073;-92
2022/02/27 02:30:09;;;;;;;46.10;29.52;;;;;;;5.72;61.89;100159.53;4960276;28;20018;-92
2022/02/27 02:32:54;;;;;;;43.53;27.98;;;;;;;6.66;62.16;100313.09;4974738;28;20023;-93
2022/02/27 02:35:21;;;;;;;45.25;28.38;;;;;;;6.69;61.83;100297.13;4974641;28;20027;-92
2022/02/27 02:37:47;;;;;;;43.13;27.42;;;;;;;6.41;61.82;100258.47;4961301;28;20037;-92
2022/02/27 02:40:13;;;;;;;43.70;27.48;;;;;;;5.88;61.89;100174.78;4974590;28;20408;-92
2022/02/27 02:42:43;;;;;;;41.80;27.92;;;;;;;6.65;61.92;100277.31;4974675;28;20050;-93
2022/02/27 02:45:11;;;;;;;48.00;30.42;;;;;;;6.46;61.33;100240.56;4976095;28;20101;-92
2022/02/27 02:47:47;;;;;;;43.05;28.63;;;;;;;6.73;61.53;100289.81;4974485;28;20027;-92
2022/02/27 02:50:14;;;;;;;42.92;28.00;;;;;;;6.71;61.35;100281.22;4974160;28;20025;-92
2022/02/27 02:52:40;;;;;;;50.08;29.08;;;;;;;5.20;61.64;100069.72;4959459;28;20114;-92
2022/02/27 02:55:09;;;;;;;43.15;28.38;;;;;;;6.67;61.76;100263.09;4973978;28;20132;-92
2022/02/27 02:57:34;;;;;;;44.67;28.13;;;;;;;5.99;61.45;100162.47;4960788;28;20034;-92
2022/02/27 03:00:00;;;;;;;49.83;29.67;;;;;;;5.57;61.84;100124.19;4973702;28;20015;-91
2022/02/27 03:02:25;;;;;;;49.33;30.13;;;;;;;6.64;61.69;100287.00;4973151;28;20543;-92
2022/02/27 03:04:51;;;;;;;50.15;29.58;;;;;;;5.83;61.48;100141.09;4973768;28;20050;-91
2022/02/27 03:07:16;;;;;;;50.20;29.60;;;;;;;5.89;61.45;100168.56;4974423;28;20109;-92
2022/02/27 03:09:42;;;;;;;52.42;31.00;;;;;;;6.38;61.87;100267.44;4957805;28;20019;-92
2022/02/27 03:12:08;;;;;;;50.85;30.27;;;;;;;6.18;62.16;100248.19;4975812;28;20025;-93
2022/02/27 03:14:33;;;;;;;50.05;31.38;;;;;;;5.83;61.92;100169.09;4957802;28;20030;-92
2022/02/27 03:16:58;;;;;;;54.90;32.73;;;;;;;5.54;62.06;100122.66;4957514;28;20030;-91
2022/02/27 03:19:24;;;;;;;51.50;32.67;;;;;;;6.22;62.03;100230.41;4976767;28;20591;-93
2022/02/27 03:21:49;;;;;;;52.07;31.60;;;;;;;5.80;62.23;100195.56;4973708;28;20037;-92
2022/02/27 03:24:15;;;;;;;54.50;34.33;;;;;;;5.98;62.41;100215.00;4973521;28;20031;-93
2022/02/27 03:26:41;;;;;;;51.70;31.27;;;;;;;6.12;62.25;100251.34;4973731;28;20105;-93
2022/02/27 03:29:07;;;;;;;56.13;34.38;;;;;;;5.90;62.36;100233.16;4977304;28;20023;-92
2022/02/27 03:31:33;;;;;;;51.75;32.35;;;;;;;6.42;62.93;100323.09;4973436;28;20416;-92
2022/02/27 03:33:59;;;;;;;54.37;32.43;;;;;;;6.36;62.61;100320.03;4973269;28;20475;-91
2022/02/27 03:36:25;;;;;;;52.78;32.53;;;;;;;5.86;62.40;100227.31;4973800;28;20098;-92
2022/02/27 03:38:50;;;;;;;51.33;32.40;;;;;;;5.47;62.44;100152.13;4973297;28;20087;-92
2022/02/27 03:41:15;;;;;;;48.92;32.42;;;;;;;5.50;62.19;100136.97;4973383;28;20031;-91
2022/02/27 03:43:41;;;;;;;47.65;29.55;;;;;;;6.41;62.73;100280.28;4975754;28;20029;-92
2022/02/27 03:46:07;;;;;;;47.28;30.50;;;;;;;6.47;62.37;100292.06;4973225;28;20026;-92
2022/02/27 03:48:32;;;;;;;46.13;27.15;;;;;;;6.03;62.50;100226.75;4973226;28;20019;-92
2022/02/27 03:50:58;;;;;;;48.55;28.10;;;;;;;6.17;62.91;100243.09;4975567;28;20030;-92
2022/02/27 03:53:23;;;;;;;48.38;28.33;;;;;;;6.45;62.66;100280.88;4973154;28;20033;-92
2022/02/27 03:55:50;;;;;;;45.35;28.92;;;;;;;6.65;62.71;100304.41;4973226;28;20026;-92
2022/02/27 03:58:15;;;;;;;50.35;30.83;;;;;;;5.48;62.77;100107.47;4958629;28;20031;-92
2022/02/27 04:00:41;;;;;;;44.45;29.27;;;;;;;6.03;62.59;100202.34;4973168;28;20389;-92
2022/02/27 04:03:08;;;;;;;42.15;27.35;;;;;;;6.67;62.79;100291.13;4972938;28;20030;-92
2022/02/27 04:05:34;;;;;;;41.35;26.50;;;;;;;6.14;62.52;100214.53;4974496;28;20499;-92
2022/02/27 04:08:00;;;;;;;38.80;25.90;;;;;;;5.96;62.24;100185.50;4956664;28;20027;-91
2022/02/27 04:10:26;;;;;;;42.07;25.73;;;;;;;6.40;62.55;100268.16;4972496;28;20034;-91
2022/02/27 04:12:51;;;;;;;40.55;26.70;;;;;;;6.43;62.73;100267.06;4973947;28;20026;-91
2022/02/27 04:15:17;;;;;;;44.35;27.73;;;;;;;6.65;62.73;100314.88;4972900;28;20416;-92
2022/02/27 04:17:42;;;;;;;50.95;30.60;;;;;;;6.18;62.59;100245.59;4972825;28;20035;-92
2022/02/27 04:20:08;;;;;;;44.53;29.98;;;;;;;5.99;62.50;100203.56;4974800;28;20030;-92
2022/02/27 04:22:34;;;;;;;45.35;30.60;;;;;;;5.79;62.32;100186.88;4972656;28;20365;-92
2022/02/27 04:24:59;;;;;;;50.22;32.03;;;;;;;6.46;62.35;100283.34;4956720;28;20019;-91
2022/02/27 04:27:25;;;;;;;52.90;32.83;;;;;;;6.61;62.38;100291.69;4974123;28;20563;-93
2022/02/27 04:29:51;;;;;;;55.97;33.15;;;;;;;6.19;62.22;100252.47;4972643;28;20178;-92
2022/02/27 04:32:16;;;;;;;48.30;30.30;;;;;;;6.03;62.57;100229.38;4972624;28;20662;-92
2022/02/27 04:34:42;;;;;;;53.22;30.05;;;;;;;6.69;62.69;100326.81;4973828;28;20022;-91
2022/02/27 04:37:07;;;;;;;54.97;30.42;;;;;;;5.95;62.23;100212.66;4972190;28;20077;-92
2022/02/27 04:39:32;;;;;;;55.75;32.42;;;;;;;5.66;62.11;100158.28;4972634;28;20027;-91
2022/02/27 04:41:58;;;;;;;56.95;31.63;;;;;;;6.29;62.54;100282.19;4974697;28;20023;-92
2022/02/27 04:44:23;;;;;;;50.17;30.73;;;;;;;6.62;62.49;100294.16;4972759;28;20037;-92
2022/02/27 04:46:49;;;;;;;52.53;31.02;;;;;;;6.62;62.41;100304.66;4956472;28;20031;-92
2022/02/27 04:49:14;;;;;;;52.25;32.22;;;;;;;5.94;62.70;100180.34;4975516;28;20023;-92
2022/02/27 04:51:40;;;;;;;55.60;33.40;;;;;;;6.73;62.62;100308.16;4974949;28;20027;-92
2022/02/27 04:54:05;;;;;;;54.35;36.13;;;;;;;6.10;62.75;100227.06;4972811;28;20081;-93
2022/02/27 04:56:31;;;;;;;59.42;38.38;;;;;;;6.69;62.94;100303.19;4972729;28;20480;-92
2022/02/27 04:58:57;;;;;;;54.33;36.38;;;;;;;6.61;62.81;100292.50;4973517;28;20027;-92
2022/02/27 05:01:22;;;;;;;49.15;30.70;;;;;;;6.05;62.59;100188.13;4972554;28;20492;-93
2022/02/27 05:03:48;;;;;;;50.20;31.47;;;;;;;6.11;62.73;100193.81;4964009;28;20049;-92
2022/02/27 05:06:14;;;;;;;48.90;29.02;;;;;;;6.41;62.39;100248.00;4995823;28;20029;-93
2022/02/27 05:08:40;;;;;;;45.15;28.92;;;;;;;6.17;62.69;100188.03;4997021;28;20070;-92
2022/02/27 05:11:05;;;;;;;45.08;26.67;;;;;;;6.20;62.39;100206.94;4979200;28;20035;-91
2022/02/27 05:13:31;;;;;;;48.15;28.05;;;;;;;6.48;62.93;100242.06;4994442;28;20094;-92
2022/02/27 05:15:57;;;;;;;45.28;28.02;;;;;;;6.37;62.89;100226.44;4992282;28;20090;-90
2022/02/27 05:18:22;;;;;;;38.42;25.70;;;;;;;6.30;62.62;100241.06;4982280;28;20467;-92
2022/02/27 05:20:48;;;;;;;35.70;27.00;;;;;;;5.61;62.46;100104.63;4972458;28;20023;-91
2022/02/27 05:23:13;;;;;;;39.90;24.60;;;;;;;5.70;62.61;100133.47;4975759;28;20023;-92
2022/02/27 05:25:39;;;;;;;31.95;23.13;;;;;;;6.81;62.77;100324.06;4972963;28;20031;-92
2022/02/27 05:28:04;;;;;;;32.83;22.45;;;;;;;6.37;62.38;100248.25;4976613;28;20022;-92
2022/02/27 05:30:30;;;;;;;39.08;25.25;;;;;;;6.86;62.27;100325.31;4976464;28;20118;-92
2022/02/27 05:32:55;;;;;;;38.85;28.17;;;;;;;5.83;62.21;100167.31;4977086;28;20014;-92
2022/02/27 05:35:21;;;;;;;33.97;26.55;;;;;;;6.44;62.00;100258.22;4976063;28;20517;-91
2022/02/27 05:37:46;;;;;;;29.92;22.52;;;;;;;6.25;61.67;100222.28;4976393;28;20025;-92
2022/02/27 05:40:12;;;;;;;31.65;22.00;;;;;;;6.23;61.85;100234.69;4996832;28;20015;-92
2022/02/27 05:42:38;;;;;;;29.90;22.05;;;;;;;6.88;61.51;100327.81;4997144;28;20033;-92
2022/02/27 05:45:05;;;;;;;34.63;23.63;;;;;;;6.73;61.27;100290.63;4991516;28;20023;-92
2022/02/27 05:47:30;;;;;;;34.85;25.00;;;;;;;6.48;61.20;100234.22;4977496;28;20030;-91
2022/02/27 05:49:56;;;;;;;33.63;21.35;;;;;;;6.84;60.89;100298.38;4976151;28;20077;-93
2022/02/27 05:52:22;;;;;;;30.30;20.17;;;;;;;6.91;61.13;100336.25;4976932;28;20027;-92
2022/02/27 05:54:47;;;;;;;32.13;20.55;;;;;;;6.51;61.06;100269.84;4961879;28;20483;-93
2022/02/27 05:57:13;;;;;;;29.15;19.60;;;;;;;6.71;61.18;100300.44;4975301;28;20021;-92
2022/02/27 05:59:39;;;;;;;28.02;19.15;;;;;;;6.77;60.98;100292.03;4958764;28;20038;-92
2022/02/27 06:02:04;;;;;;;29.25;20.90;;;;;;;7.00;61.11;100330.19;4977107;28;20023;-92
2022/02/27 06:04:30;;;;;;;31.70;21.92;;;;;;;7.01;60.19;100344.97;4975235;28;20482;-92
2022/02/27 06:06:56;;;;;;;28.33;19.48;;;;;;;7.00;60.77;100330.19;4958995;28;20049;-92
2022/02/27 06:09:21;;;;;;;29.88;21.08;;;;;;;6.63;60.40;100297.63;4959909;28;20050;-92
2022/02/27 06:11:47;;;;;;;24.95;19.73;;;;;;;6.13;60.61;100232.03;4959081;28;20472;-92
2022/02/27 06:14:12;;;;;;;31.08;22.20;;;;;;;6.77;60.11;100336.63;4975854;28;20041;-92
2022/02/27 06:16:38;;;;;;;27.67;20.20;;;;;;;6.07;60.08;100222.09;4960380;28;20459;-92
2022/02/27 06:19:03;;;;;;;28.25;21.27;;;;;;;6.96;60.21;100369.97;4975198;28;20027;-92
2022/02/27 06:21:29;;;;;;;30.80;21.77;;;;;;;7.01;59.91;100371.22;4975207;28;20054;-92
2022/02/27 06:23:54;;;;;;;31.00;22.93;;;;;;;6.91;60.20;100311.78;4975927;28;20089;-92
2022/02/27 06:26:20;;;;;;;33.78;23.50;;;;;;;6.99;59.86;100309.31;4974952;28;20033;-92
2022/02/27 06:28:46;;;;;;;30.70;22.15;;;;;;;6.58;59.78;100266.53;4974614;28;20078;-93
2022/02/27 06:31:11;;;;;;;32.95;24.60;;;;;;;7.11;59.70;100337.13;4976263;28;20106;-92
2022/02/27 06:33:37;;;;;;;37.55;25.48;;;;;;;7.16;60.00;100331.44;4958453;28;20033;-91
2022/02/27 06:36:02;;;;;;;36.97;26.13;;;;;;;6.87;59.87;100277.13;4958613;28;20018;-92
2022/02/27 06:38:28;;;;;;;37.20;27.13;;;;;;;5.97;59.81;100139.97;4973564;28;20038;-92
2022/02/27 06:40:54;;;;;;;37.25;27.42;;;;;;;6.55;59.19;100216.13;4975481;28;20023;-92
2022/02/27 06:43:19;;;;;;;40.13;27.20;;;;;;;6.67;59.30;100254.41;4974395;28;20031;-91
2022/02/27 06:45:44;;;;;;;44.95;33.22;;;;;;;7.00;59.43;100301.31;4975795;28;20027;-92
2022/02/27 06:48:10;;;;;;;44.63;33.85;;;;;;;6.69;59.64;100221.00;4975144;28;20023;-91
2022/02/27 06:50:35;;;;;;;44.53;32.67;;;;;;;6.16;59.43;100160.97;4974288;28;20038;-91
2022/02/27 06:53:01;;;;;;;41.40;29.50;;;;;;;6.33;59.27;100188.34;4974456;28;20408;-92
2022/02/27 06:55:27;;;;;;;38.78;28.50;;;;;;;6.94;59.09;100270.34;4975539;28;20034;-92
2022/02/27 06:57:52;;;;;;;39.83;27.95;;;;;;;6.80;58.94;100241.06;4974057;28;20023;-92
2022/02/27 07:00:19;;;;;;;34.08;26.20;;;;;;;6.08;59.65;100166.06;4957702;28;20033;-92
2022/02/27 07:02:45;;;;;;;36.50;25.00;;;;;;;7.38;58.73;100325.94;4958851;28;20045;-92
2022/02/27 07:05:11;;;;;;;36.35;25.30;;;;;;;7.24;59.51;100303.53;4973797;28;20030;-92
2022/02/27 07:07:37;;;;;;;36.15;27.02;;;;;;;7.39;59.52;100318.88;4973999;28;20062;-93
2022/02/27 07:10:04;;;;;;;39.42;30.25;;;;;;;7.28;58.93;100296.22;4959150;28;20019;-92
2022/02/27 07:12:31;;;;;;;35.65;27.20;;;;;;;6.79;59.05;100226.28;4973480;28;20033;-91
2022/02/27 07:14:57;;;;;;;40.08;28.73;;;;;;;7.39;59.16;100306.56;4973449;28;20041;-92
2022/02/27 07:17:22;;;;;;;39.65;28.45;;;;;;;7.62;59.03;100326.38;4976596;28;20026;-91
2022/02/27 07:19:48;;;;;;;39.92;28.42;;;;;;;6.89;58.95;100179.84;4974671;28;20452;-92
2022/02/27 07:22:13;;;;;;;40.83;31.42;;;;;;;7.03;58.98;100194.34;4973880;28;20027;-91
2022/02/27 07:24:39;;;;;;;41.25;29.52;;;;;;;7.54;58.85;100278.94;4958708;28;20018;-92
2022/02/27 07:27:05;;;;;;;36.28;26.45;;;;;;;7.22;58.96;100275.75;4973474;28;20047;-92
2022/02/27 07:29:31;;;;;;;36.13;26.63;;;;;;;7.21;58.78;100253.91;4973430;28;20113;-91
2022/02/27 07:31:57;;;;;;;39.58;30.77;;;;;;;6.98;58.83;100213.97;4975577;28;20026;-92
2022/02/27 07:34:22;;;;;;;36.92;28.00;;;;;;;7.22;58.72;100260.81;4973241;28;20033;-91
2022/02/27 07:36:51;;;;;;;41.17;31.15;;;;;;;7.58;58.73;100303.13;4973366;28;20058;-93
2022/02/27 07:39:20;;;;;;;42.05;29.67;;;;;;;7.52;59.09;100262.47;4974266;28;20026;-91
2022/02/27 07:41:45;;;;;;;35.55;25.23;;;;;;;7.84;58.68;100306.00;4973305;28;20042;-91
2022/02/27 07:44:11;;;;;;;33.97;25.90;;;;;;;7.56;58.76;100257.78;4957028;28;20027;-91
2022/02/27 07:46:36;;;;;;;37.15;28.27;;;;;;;7.30;58.54;100247.00;4973335;28;20576;-92
2022/02/27 07:49:02;;;;;;;37.47;26.40;;;;;;;7.14;58.81;100192.41;4973168;28;20499;-91
2022/02/27 07:51:29;;;;;;;37.28;28.42;;;;;;;7.82;58.72;100290.34;4957009;28;20096;-91
2022/02/27 07:53:55;;;;;;;37.78;28.95;;;;;;;7.82;58.76;100284.28;4956717;28;20019;-91
2022/02/27 07:56:21;;;;;;;39.47;32.92;;;;;;;6.95;58.61;100143.38;4973971;28;20019;-91
2022/02/27 07:58:46;;;;;;;45.40;31.20;;;;;;;7.74;58.84;100260.50;4972418;28;20031;-91
2022/02/27 08:01:12;;;;;;;36.20;28.50;;;;;;;7.93;58.78;100284.94;4972733;28;20102;-92
2022/02/27 08:03:37;;;;;;;36.72;27.40;;;;;;;7.15;58.80;100122.34;4974998;28;20054;-91
2022/02/27 08:06:03;;;;;;;39.78;27.55;;;;;;;7.96;58.51;100260.97;4972668;28;20023;-92
2022/02/27 08:08:28;;;;;;;39.08;27.73;;;;;;;7.37;58.69;100156.16;4972591;28;20047;-92
2022/02/27 08:10:54;;;;;;;35.35;25.77;;;;;;;7.16;58.69;100118.75;4972333;28;20026;-92
2022/02/27 08:13:19;;;;;;;36.20;27.15;;;;;;;7.39;58.34;100164.72;4973075;28;20027;-91
2022/02/27 08:15:45;;;;;;;33.88;26.40;;;;;;;7.93;58.33;100261.28;4972858;28;20034;-91
2022/02/27 08:18:10;;;;;;;35.10;26.63;;;;;;;7.73;58.38;100208.91;4956928;28;20122;-91
2022/02/27 08:20:36;;;;;;;35.80;25.27;;;;;;;7.59;58.72;100178.66;4974289;28;20023;-91
2022/02/27 08:23:04;;;;;;;36.95;25.45;;;;;;;6.53;58.60;100006.41;4972737;28;20023;-91
2022/02/27 08:25:30;;;;;;;32.65;23.67;;;;;;;8.02;58.70;100233.28;4972899;28;20031;-91
2022/02/27 08:27:55;;;;;;;28.05;21.98;;;;;;;7.95;58.34;100206.72;4972446;28;20033;-91
2022/02/27 08:30:20;;;;;;;27.70;20.27;;;;;;;8.18;58.11;100244.03;4973179;28;20022;-92
2022/02/27 08:32:50;;;;;;;26.17;20.52;;;;;;;7.43;58.48;100125.84;4972269;28;20025;-91
2022/02/27 08:35:16;;;;;;;30.05;22.48;;;;;;;8.23;58.54;100228.63;4972405;28;20027;-91
2022/02/27 08:37:42;;;;;;;30.25;21.50;;;;;;;8.30;58.36;100236.78;4957555;28;20059;-90
2022/02/27 08:40:08;;;;;;;33.47;23.42;;;;;;;8.20;58.07;100221.03;4972197;28;20062;-91
2022/02/27 08:42:34;;;;;;;28.42;22.20;;;;;;;7.75;58.39;100147.31;4973521;28;20030;-91
2022/02/27 08:44:59;;;;;;;33.67;24.45;;;;;;;8.14;58.13;100176.06;4972628;28;20014;-92
2022/02/27 08:47:25;;;;;;;34.08;25.15;;;;;;;6.81;58.27;99960.09;4959111;28;20015;-91
2022/02/27 08:49:50;;;;;;;29.25;23.50;;;;;;;8.27;58.25;100221.28;4972569;28;20409;-91
2022/02/27 08:52:16;;;;;;;31.27;23.10;;;;;;;7.60;58.44;100104.94;4971923;28;20030;-91
2022/02/27 08:54:41;;;;;;;30.30;22.67;;;;;;;7.68;58.67;100101.56;4972242;28;20026;-91
2022/02/27 08:57:07;;;;;;;34.40;24.58;;;;;;;7.82;58.53;100148.41;4972667;28;20112;-91
2022/02/27 08:59:32;;;;;;;29.33;23.17;;;;;;;7.92;58.86;100145.72;4972923;28;20027;-91
2022/02/27 09:01:58;;;;;;;30.98;23.52;;;;;;;7.60;59.24;100111.97;4972136;28;20389;-91
2022/02/27 09:04:23;;;;;;;31.38;25.40;;;;;;;7.85;59.23;100144.66;4971970;28;20027;-91
2022/02/27 09:06:49;;;;;;;29.33;21.30;;;;;;;7.88;58.82;100160.97;4957648;28;20515;-91
2022/02/27 09:09:16;;;;;;;30.70;23.75;;;;;;;7.39;59.26;100087.69;4971945;28;20081;-91
2022/02/27 09:11:42;;;;;;;30.75;22.77;;;;;;;7.45;60.03;100095.03;4971770;28;20086;-91
2022/02/27 09:14:07;;;;;;;29.80;23.35;;;;;;;7.92;59.64;100164.94;4971951;28;20066;-92
2022/02/27 09:16:33;;;;;;;34.15;24.65;;;;;;;7.82;60.16;100130.00;4973725;28;20050;-92
2022/02/27 09:18:58;;;;;;;37.58;31.05;;;;;;;8.16;59.99;100188.09;4972929;28;20503;-91
2022/02/27 09:21:24;;;;;;;34.60;28.60;;;;;;;7.34;59.83;100022.47;4956209;28;20491;-92
2022/02/27 09:23:49;;;;;;;41.03;28.40;;;;;;;7.32;59.35;100014.72;4973501;28;20025;-91
2022/02/27 09:26:15;;;;;;;32.58;24.33;;;;;;;7.81;59.65;100065.25;4972196;28;20027;-91
2022/02/27 09:28:41;;;;;;;29.45;21.67;;;;;;;6.91;59.57;99925.94;4956281;28;20431;-91
2022/02/27 09:31:06;;;;;;;33.67;22.17;;;;;;;7.45;59.87;100017.06;4973469;28;20065;-91
2022/02/27 09:33:32;;;;;;;29.15;21.65;;;;;;;8.39;59.53;100151.72;4974831;28;20470;-91
2022/02/27 09:35:58;;;;;;;30.33;22.23;;;;;;;8.09;59.99;100096.78;4955822;28;20522;-90
2022/02/27 09:38:23;;;;;;;30.48;20.20;;;;;;;8.31;59.26;100127.94;4972276;28;20019;-91
2022/02/27 09:40:50;;;;;;;21.27;18.50;;;;;;;8.44;59.72;100140.75;4973716;28;20034;-91
2022/02/27 09:43:19;;;;;;;23.45;16.98;;;;;;;7.94;59.49;100070.16;4982025;28;20026;-91
2022/02/27 09:45:46;;;;;;;26.80;17.55;;;;;;;7.93;59.83;100065.88;4991789;28;20041;-91
2022/02/27 09:48:12;;;;;;;24.08;17.65;;;;;;;8.78;59.46;100143.53;4991319;28;20034;-91
2022/02/27 09:50:40;;;;;;;24.65;17.58;;;;;;;8.62;59.26;100102.09;4969858;28;20031;-91
2022/02/27 09:53:09;;;;;;;21.70;16.45;;;;;;;7.35;58.73;99884.91;4979256;28;20031;-91
2022/02/27 09:55:36;;;;;;;19.15;15.02;;;;;;;8.10;58.97;100030.03;4973870;28;20059;-91
2022/02/27 09:58:01;;;;;;;19.83;16.27;;;;;;;8.41;58.64;100068.22;4972436;28;20019;-91
2022/02/27 10:00:27;;;;;;;22.30;16.00;;;;;;;8.98;59.08;100113.44;4971181;28;20031;-91
2022/02/27 10:03:09;;;;;;;20.75;15.45;;;;;;;9.03;58.72;100105.06;4971335;28;20142;-90
2022/02/27 10:05:40;;;;;;;20.35;14.35;;;;;;;9.05;58.83;100109.22;4955842;28;20117;-91
2022/02/27 10:08:07;;;;;;;19.77;15.43;;;;;;;9.04;58.65;100089.13;4955350;28;20030;-91
2022/02/27 10:10:32;;;;;;;27.25;16.02;;;;;;;8.61;58.53;99997.78;4955252;28;20027;-90
2022/02/27 10:12:58;;;;;;;20.92;13.25;;;;;;;8.55;58.69;99990.50;4973721;28;20414;-91
2022/02/27 10:15:24;;;;;;;17.23;13.77;;;;;;;8.59;58.43;100011.09;4976079;28;20038;-91
2022/02/27 10:17:51;;;;;;;19.23;13.13;;;;;;;8.69;58.13;99975.97;4975358;28;20031;-90
2022/02/27 10:20:19;;;;;;;20.98;14.68;;;;;;;9.18;57.73;100024.50;4997615;28;20017;-92
2022/02/27 10:22:48;;;;;;;20.13;13.63;;;;;;;8.70;57.83;99959.19;4985255;28;20022;-91
2022/02/27 10:25:19;;;;;;;19.05;12.15;;;;;;;9.32;57.79;100060.78;4994837;28;20094;-91
2022/02/27 10:27:50;;;;;;;18.10;13.38;;;;;;;9.34;57.82;100066.72;4991432;28;20030;-90
2022/02/27 10:30:16;;;;;;;15.88;11.85;;;;;;;9.27;57.79;100063.06;4991102;28;20037;-91
2022/02/27 10:32:59;;;;;;;16.50;13.15;;;;;;;9.18;58.14;100058.72;4989071;28;20046;-92
2022/02/27 10:35:53;;;;;;;16.83;12.50;;;;;;;9.05;58.31;100045.16;4958250;28;20037;-90
2022/02/27 10:41:10;;;;;;;14.35;11.77;;;;;;;8.96;58.34;100048.72;4976885;28;20035;-90
2022/02/27 10:43:42;;;;;;;18.08;11.30;;;;;;;7.95;58.76;99898.28;4974071;28;20023;-91
2022/02/27 10:46:08;;;;;;;16.05;11.15;;;;;;;8.03;58.62;99924.63;4975174;28;20496;-91
2022/02/27 10:48:34;;;;;;;15.98;12.45;;;;;;;8.28;59.04;99958.06;4974655;28;20026;-91
2022/02/27 10:51:32;;;;;;;18.08;12.45;;;;;;;8.69;59.85;100008.38;4975872;28;20065;-91
2022/02/27 10:53:58;;;;;;;16.17;12.43;;;;;;;8.01;59.08;99908.19;4957870;28;20035;-90
2022/02/27 10:56:31;;;;;;;17.75;13.55;;;;;;;7.71;59.53;99896.28;4974434;28;20034;-91
2022/02/27 10:58:57;;;;;;;18.27;12.70;;;;;;;8.49;59.65;99983.25;4973657;28;20492;-90
2022/02/27 11:01:25;;;;;;;18.55;13.63;;;;;;;8.54;59.72;99987.06;4975674;28;20030;-91
2022/02/27 11:03:53;;;;;;;19.23;13.75;;;;;;;8.26;59.73;99931.09;4975230;28;20031;-92
2022/02/27 11:06:20;;;;;;;18.00;13.27;;;;;;;8.59;59.97;99976.91;4975100;28;20031;-92
2022/02/27 11:08:46;;;;;;;22.75;15.35;;;;;;;8.31;60.06;99941.16;4958740;28;20054;-92
2022/02/27 11:11:12;;;;;;;23.98;17.52;;;;;;;7.82;60.50;99848.72;4974136;28;20113;-92
2022/02/27 11:13:39;;;;;;;22.80;14.77;;;;;;;8.27;60.53;99929.28;4973950;28;20044;-93
2022/02/27 11:16:07;;;;;;;24.10;15.88;;;;;;;7.76;60.52;99866.91;4975186;28;20116;-92